Time;durP1;ratioP1;P1;durP2;ratioP2;P2;SDS_P1;SDS_P2;PMS_P1;PMS_P2;Temp;Humidity;BMP_temperature;BMP_pressure;BME280_temperature;BME280_humidity;BME280_pressure;Samples;Min_cycle;Max_cycle;Signal;HPM_P1;HPM_P2
2023/03/16 00:01:40;;;;;;;7.43;4.13;;;;;;;-1.99;100.00;101053.94;5019450;28;20595;-72
2023/03/16 00:04:07;;;;;;;6.17;3.70;;;;;;;-2.01;100.00;101045.09;5027640;28;20200;-72
2023/03/16 00:06:58;;;;;;;7.60;4.07;;;;;;;-2.03;100.00;101044.09;5027008;28;20199;-72
2023/03/16 00:09:29;;;;;;;7.33;4.10;;;;;;;-2.03;100.00;101044.09;5044864;28;20197;-72
2023/03/16 00:11:57;;;;;;;5.70;3.53;;;;;;;-2.11;100.00;101035.75;5026478;28;20225;-72
2023/03/16 00:14:25;;;;;;;9.53;4.17;;;;;;;-2.23;100.00;101038.34;5027461;28;20223;-72
2023/03/16 00:16:52;;;;;;;12.27;4.63;;;;;;;-2.30;100.00;101032.59;5031437;28;20200;-72
2023/03/16 00:19:18;;;;;;;15.83;6.40;;;;;;;-2.29;100.00;101032.72;5021944;28;20251;-72
2023/03/16 00:21:44;;;;;;;13.83;5.83;;;;;;;-2.32;100.00;101031.59;5030432;28;20633;-72
2023/03/16 00:24:11;;;;;;;8.40;4.00;;;;;;;-2.37;100.00;101039.03;5025303;28;20207;-71
2023/03/16 00:26:38;;;;;;;12.03;4.43;;;;;;;-2.37;100.00;101030.34;5026184;28;20195;-72
2023/03/16 00:29:04;;;;;;;9.07;4.27;;;;;;;-2.41;100.00;101036.97;5023985;28;20676;-72
2023/03/16 00:31:32;;;;;;;8.63;4.50;;;;;;;-2.43;100.00;101030.75;5023333;28;20722;-72
2023/03/16 00:33:58;;;;;;;8.73;4.27;;;;;;;-2.48;100.00;101031.22;5029831;28;20191;-72
2023/03/16 00:36:25;;;;;;;8.20;3.60;;;;;;;-2.53;100.00;101034.38;5025179;28;20236;-72
2023/03/16 00:38:52;;;;;;;5.83;3.50;;;;;;;-2.50;100.00;101027.59;5026441;28;20227;-72
2023/03/16 00:41:19;;;;;;;7.20;4.00;;;;;;;-2.52;100.00;101030.09;5029302;28;20215;-71
2023/03/16 00:43:47;;;;;;;6.97;4.00;;;;;;;-2.54;100.00;101027.38;5022431;28;20200;-72
2023/03/16 00:46:15;;;;;;;8.90;3.83;;;;;;;-2.56;100.00;101022.84;5029795;28;20246;-72
2023/03/16 00:48:45;;;;;;;9.20;4.03;;;;;;;-2.63;100.00;101024.09;5021982;28;20202;-72
2023/03/16 00:51:15;;;;;;;7.60;3.63;;;;;;;-2.64;100.00;101039.53;5022608;28;20218;-72
2023/03/16 00:53:43;;;;;;;9.00;3.53;;;;;;;-2.66;100.00;101044.59;5027466;28;20202;-72
2023/03/16 00:56:11;;;;;;;7.07;3.50;;;;;;;-2.67;100.00;101041.91;5029174;28;20571;-72
2023/03/16 00:58:39;;;;;;;6.07;3.60;;;;;;;-2.45;100.00;101039.22;5023984;28;20256;-72
2023/03/16 01:01:07;;;;;;;5.53;3.20;;;;;;;-2.30;100.00;101050.75;5022514;28;20498;-71
2023/03/16 01:03:34;;;;;;;7.87;3.57;;;;;;;-2.18;100.00;101056.84;5029985;28;20207;-72
2023/03/16 01:06:06;;;;;;;7.30;3.40;;;;;;;-2.13;100.00;101042.53;5029636;28;20278;-72
2023/03/16 01:08:32;;;;;;;7.13;3.20;;;;;;;-2.19;100.00;101041.16;5028622;28;20196;-72
2023/03/16 01:11:09;;;;;;;9.00;4.07;;;;;;;-2.26;100.00;101034.63;5028593;28;20262;-72
2023/03/16 01:13:36;;;;;;;6.73;3.63;;;;;;;-2.34;100.00;101038.34;5028610;28;20215;-72
2023/03/16 01:16:03;;;;;;;7.77;3.60;;;;;;;-2.36;100.00;101039.94;5024660;28;20212;-72
2023/03/16 01:18:33;;;;;;;5.90;3.20;;;;;;;-2.46;100.00;101040.91;5022699;28;20598;-72
2023/03/16 01:21:02;;;;;;;5.23;3.33;;;;;;;-2.54;100.00;101049.81;5029423;28;20299;-72
2023/03/16 01:23:30;;;;;;;6.10;3.53;;;;;;;-2.53;100.00;101036.06;5028161;28;20239;-72
2023/03/16 01:25:57;;;;;;;6.20;3.30;;;;;;;-2.60;100.00;101032.09;5027611;28;20240;-72
2023/03/16 01:28:26;;;;;;;7.43;3.40;;;;;;;-2.63;100.00;101031.88;5026914;28;20725;-72
2023/03/16 01:30:56;;;;;;;7.43;3.10;;;;;;;-2.67;100.00;101019.47;5028765;28;20219;-72
2023/03/16 01:33:24;;;;;;;10.63;3.77;;;;;;;-2.61;100.00;101013.84;5027604;28;20283;-72
2023/03/16 01:35:55;;;;;;;6.70;3.20;;;;;;;-2.56;100.00;101020.28;5025314;28;20234;-72
2023/03/16 01:38:22;;;;;;;7.57;3.10;;;;;;;-2.62;100.00;101015.53;5022015;28;20213;-72
2023/03/16 01:40:50;;;;;;;8.27;3.63;;;;;;;-2.63;100.00;101021.50;5027980;28;20238;-72
2023/03/16 01:43:18;;;;;;;6.97;3.67;;;;;;;-2.61;100.00;101014.75;5022219;28;20196;-72
2023/03/16 01:46:03;;;;;;;4.80;2.80;;;;;;;-2.65;100.00;101012.72;5024302;28;20257;-72
2023/03/16 01:48:37;;;;;;;5.57;2.90;;;;;;;-2.61;100.00;101003.47;5027518;28;20698;-72
2023/03/16 01:51:09;;;;;;;6.20;3.40;;;;;;;-2.67;100.00;100990.97;5026597;28;20251;-72
2023/03/16 01:53:38;;;;;;;5.83;3.13;;;;;;;-2.71;100.00;100991.50;5021081;28;20628;-72
2023/03/16 01:56:11;;;;;;;6.87;3.40;;;;;;;-2.71;100.00;100973.38;5022800;28;20233;-72
2023/03/16 01:58:39;;;;;;;7.93;3.40;;;;;;;-2.63;100.00;100986.91;5023651;28;20261;-72
2023/03/16 02:01:05;;;;;;;5.93;3.27;;;;;;;-2.62;100.00;100988.69;5020765;28;20274;-71
2023/03/16 02:03:33;;;;;;;8.03;3.80;;;;;;;-2.45;100.00;100988.25;5023014;28;20206;-72
2023/03/16 02:06:11;;;;;;;8.87;4.07;;;;;;;-2.41;100.00;100986.78;5024222;28;20249;-72
2023/03/16 02:08:39;;;;;;;6.93;3.40;;;;;;;-2.43;100.00;100986.69;5022291;28;20726;-72
2023/03/16 02:11:08;;;;;;;6.73;3.30;;;;;;;-2.46;100.00;100990.75;5024947;28;20601;-72
2023/03/16 02:13:35;;;;;;;6.90;3.77;;;;;;;-2.41;100.00;100994.56;5031006;28;20322;-72
2023/03/16 02:16:05;;;;;;;7.93;3.07;;;;;;;-2.36;100.00;100995.84;5030780;28;20199;-72
2023/03/16 02:18:32;;;;;;;5.53;3.30;;;;;;;-2.34;100.00;100992.56;5029564;28;20704;-72
2023/03/16 02:21:31;;;;;;;5.77;3.33;;;;;;;-2.26;100.00;100986.25;5024646;28;20718;-72
2023/03/16 02:24:01;;;;;;;6.33;3.43;;;;;;;-2.35;100.00;100975.22;5027566;28;20649;-72
2023/03/16 02:27:00;;;;;;;7.27;3.60;;;;;;;-2.33;100.00;100972.72;5032894;28;20201;-72
2023/03/16 02:29:53;;;;;;;6.60;3.80;;;;;;;-2.37;100.00;100952.53;5030656;28;20199;-71
2023/03/16 02:32:21;;;;;;;5.53;3.33;;;;;;;-2.46;100.00;100963.13;5027570;28;20292;-72
2023/03/16 02:34:48;;;;;;;5.97;3.53;;;;;;;-2.56;100.00;100953.75;5031611;28;20574;-72
2023/03/16 02:37:14;;;;;;;8.37;3.70;;;;;;;-2.53;100.00;100950.50;5029654;28;20200;-72
2023/03/16 02:39:42;;;;;;;7.37;3.73;;;;;;;-2.54;100.00;100951.28;5029895;28;20243;-72
2023/03/16 02:42:15;;;;;;;8.23;3.93;;;;;;;-2.52;100.00;100948.00;5029724;28;20220;-72
2023/03/16 02:44:47;;;;;;;5.60;3.27;;;;;;;-2.48;100.00;100950.81;5020469;28;20222;-72
2023/03/16 02:47:41;;;;;;;4.97;3.00;;;;;;;-2.47;100.00;100952.63;5027323;28;20197;-72
2023/03/16 02:50:10;;;;;;;6.23;3.10;;;;;;;-2.49;100.00;100944.75;5026923;28;20598;-72
2023/03/16 02:52:37;;;;;;;7.00;3.57;;;;;;;-2.45;100.00;100941.59;5026428;28;20208;-72
2023/03/16 02:55:05;;;;;;;8.00;3.53;;;;;;;-2.42;100.00;100936.63;5032287;28;20201;-72
2023/03/16 02:57:32;;;;;;;8.03;4.20;;;;;;;-2.40;100.00;100928.94;5025858;28;20252;-72
2023/03/16 02:59:58;;;;;;;7.20;3.53;;;;;;;-2.39;100.00;100934.28;5028373;28;20218;-72
2023/03/16 03:02:24;;;;;;;8.83;4.03;;;;;;;-2.31;100.00;100937.44;5029175;28;20228;-72
2023/03/16 03:04:53;;;;;;;11.20;4.00;;;;;;;-2.12;100.00;100942.25;5027488;28;20692;-71
2023/03/16 03:07:20;;;;;;;9.03;3.67;;;;;;;-2.01;100.00;100938.72;5028778;28;20568;-72
2023/03/16 03:09:46;;;;;;;7.87;3.90;;;;;;;-2.08;100.00;100939.97;5027475;28;20191;-72
2023/03/16 03:12:13;;;;;;;10.77;3.80;;;;;;;-2.18;100.00;100936.63;5027066;28;20200;-72
2023/03/16 03:14:39;;;;;;;6.40;3.37;;;;;;;-2.27;100.00;100927.38;5025808;28;20235;-72
2023/03/16 03:17:07;;;;;;;7.83;3.40;;;;;;;-2.36;100.00;100933.59;5019954;28;20233;-72
2023/03/16 03:19:33;;;;;;;5.47;3.33;;;;;;;-2.44;100.00;100945.06;5027636;28;20808;-72
2023/03/16 03:22:05;;;;;;;8.33;3.83;;;;;;;-2.52;100.00;100940.22;5030204;28;20211;-72
2023/03/16 03:24:33;;;;;;;6.50;3.90;;;;;;;-2.54;100.00;100941.81;5030358;28;20265;-72
2023/03/16 03:27:04;;;;;;;7.30;3.80;;;;;;;-2.45;100.00;100936.41;5026891;28;20295;-72
2023/03/16 03:29:33;;;;;;;7.77;4.20;;;;;;;-2.46;100.00;100936.28;5032029;28;20194;-72
2023/03/16 03:32:01;;;;;;;9.97;4.40;;;;;;;-2.49;100.00;100934.38;5023418;28;20222;-73
2023/03/16 03:34:28;;;;;;;6.77;3.53;;;;;;;-2.49;100.00;100930.88;5030484;28;20583;-72
2023/03/16 03:36:55;;;;;;;6.87;3.73;;;;;;;-2.56;100.00;100926.94;5029407;28;20196;-72
2023/03/16 03:39:21;;;;;;;6.87;3.60;;;;;;;-2.62;100.00;100924.78;5030851;28;20215;-72
2023/03/16 03:41:47;;;;;;;7.87;3.70;;;;;;;-2.67;100.00;100926.16;5031292;28;20224;-72
2023/03/16 03:44:14;;;;;;;8.73;3.77;;;;;;;-2.68;100.00;100926.94;5030707;28;20223;-72
2023/03/16 03:46:40;;;;;;;6.97;3.73;;;;;;;-2.71;100.00;100928.41;5024413;28;20247;-72
2023/03/16 03:49:07;;;;;;;11.17;4.00;;;;;;;-2.58;100.00;100920.72;5028521;28;20726;-72
2023/03/16 03:51:33;;;;;;;6.33;3.87;;;;;;;-2.41;100.00;100927.16;5020292;28;20232;-72
2023/03/16 03:53:59;;;;;;;8.47;4.20;;;;;;;-2.27;100.00;100931.66;5020685;28;20244;-72
2023/03/16 03:56:26;;;;;;;7.00;4.13;;;;;;;-2.39;100.00;100929.09;5025904;28;20196;-72
2023/03/16 03:58:52;;;;;;;8.93;4.23;;;;;;;-2.43;100.00;100933.91;5026032;28;20215;-72
2023/03/16 04:01:19;;;;;;;8.50;4.47;;;;;;;-2.57;100.00;100920.84;5034490;28;20223;-71
2023/03/16 04:03:46;;;;;;;10.13;4.40;;;;;;;-2.66;100.00;100914.09;5031837;28;20199;-72
2023/03/16 04:06:12;;;;;;;8.00;4.00;;;;;;;-2.74;100.00;100916.13;5021730;28;20224;-72
2023/03/16 04:08:39;;;;;;;6.50;4.00;;;;;;;-2.74;100.00;100910.03;5026498;28;20228;-72
2023/03/16 04:11:05;;;;;;;8.23;4.47;;;;;;;-2.75;100.00;100919.50;5028044;28;20254;-72
2023/03/16 04:13:31;;;;;;;7.53;4.30;;;;;;;-2.72;100.00;100924.91;5029164;28;20227;-71
2023/03/16 04:16:01;;;;;;;8.20;4.60;;;;;;;-2.62;100.00;100923.91;5029779;28;20212;-72
2023/03/16 04:18:29;;;;;;;7.67;4.03;;;;;;;-2.71;100.00;100924.13;5031427;28;20224;-72
2023/03/16 04:20:55;;;;;;;8.97;4.80;;;;;;;-2.75;100.00;100918.59;5024621;28;20253;-71
2023/03/16 04:23:23;;;;;;;9.50;4.77;;;;;;;-2.83;100.00;100918.91;5028838;28;20230;-72
2023/03/16 04:25:50;;;;;;;8.70;4.70;;;;;;;-2.79;100.00;100922.66;5024129;28;20231;-72
2023/03/16 04:28:17;;;;;;;11.57;4.93;;;;;;;-2.71;100.00;100921.53;5028532;28;20203;-73
2023/03/16 04:30:43;;;;;;;9.07;4.80;;;;;;;-2.68;100.00;100921.75;5027083;28;20238;-72
2023/03/16 04:33:09;;;;;;;10.63;5.17;;;;;;;-2.76;100.00;100903.84;5022624;28;20200;-72
2023/03/16 04:35:36;;;;;;;9.23;4.67;;;;;;;-2.78;100.00;100908.91;5023056;28;20231;-72
2023/03/16 04:38:02;;;;;;;7.07;4.27;;;;;;;-2.84;100.00;100906.75;5029373;28;20207;-70
2023/03/16 04:40:29;;;;;;;11.67;5.07;;;;;;;-2.88;100.00;100904.72;5023630;28;20429;-72
2023/03/16 04:42:55;;;;;;;11.07;4.80;;;;;;;-2.85;100.00;100904.94;5029279;28;20245;-72
2023/03/16 04:45:21;;;;;;;14.70;5.63;;;;;;;-2.82;100.00;100906.84;5029186;28;20468;-72
2023/03/16 04:47:48;;;;;;;10.83;5.07;;;;;;;-2.71;100.00;100915.44;5019529;28;20638;-72
2023/03/16 04:50:15;;;;;;;13.53;5.10;;;;;;;-2.42;100.00;100930.53;5021262;28;20211;-72
2023/03/16 04:52:41;;;;;;;11.77;4.90;;;;;;;-2.27;100.00;100909.22;5027677;28;20203;-73
2023/03/16 04:55:08;;;;;;;8.87;4.90;;;;;;;-2.28;100.00;100915.19;5021275;28;20207;-72
2023/03/16 04:57:34;;;;;;;11.80;5.33;;;;;;;-2.38;100.00;100915.34;5022821;28;20195;-72
2023/03/16 05:00:08;;;;;;;10.47;5.10;;;;;;;-2.43;100.00;100918.34;5028764;28;20215;-72
2023/03/16 05:02:34;;;;;;;9.33;5.40;;;;;;;-2.34;100.00;100916.47;5022435;28;20234;-72
2023/03/16 05:05:02;;;;;;;9.90;5.20;;;;;;;-2.39;100.00;100905.75;5029447;28;20211;-72
2023/03/16 05:07:29;;;;;;;9.70;5.40;;;;;;;-2.43;100.00;100905.38;5026345;28;20223;-72
2023/03/16 05:09:55;;;;;;;9.43;5.20;;;;;;;-2.42;100.00;100905.50;5027017;28;20281;-72
2023/03/16 05:12:21;;;;;;;9.47;5.37;;;;;;;-2.40;100.00;100903.00;5022224;28;20214;-72
2023/03/16 05:14:48;;;;;;;12.33;5.67;;;;;;;-2.40;100.00;100903.94;5030127;28;20258;-72
2023/03/16 05:17:14;;;;;;;10.33;5.13;;;;;;;-2.28;100.00;100898.75;5025259;28;20296;-72
2023/03/16 05:19:41;;;;;;;10.97;5.80;;;;;;;-2.20;100.00;100895.00;5025606;28;20220;-72
2023/03/16 05:22:08;;;;;;;11.97;5.60;;;;;;;-2.10;100.00;100899.16;5026308;28;20234;-72
2023/03/16 05:24:35;;;;;;;13.70;6.43;;;;;;;-2.05;100.00;100892.59;5029944;28;20196;-72
2023/03/16 05:27:02;;;;;;;15.83;6.70;;;;;;;-2.05;100.00;100888.28;5026263;28;20203;-73
2023/03/16 05:29:30;;;;;;;11.60;5.80;;;;;;;-2.00;100.00;100880.84;5029370;28;20220;-72
2023/03/16 05:31:58;;;;;;;12.00;6.27;;;;;;;-1.95;100.00;100884.69;5014822;28;20451;-71
2023/03/16 05:34:25;;;;;;;9.87;6.07;;;;;;;-1.91;100.00;100885.00;5023706;28;20283;-72
2023/03/16 05:36:51;;;;;;;13.93;7.77;;;;;;;-1.85;100.00;100878.44;5027855;28;20276;-72
2023/03/16 05:39:17;;;;;;;18.03;7.73;;;;;;;-1.73;100.00;100881.88;5025507;28;20221;-72
2023/03/16 05:41:44;;;;;;;15.10;8.23;;;;;;;-1.56;100.00;100876.19;5026484;28;20220;-72
2023/03/16 05:44:10;;;;;;;15.70;7.60;;;;;;;-1.41;100.00;100884.13;5028226;28;20291;-72
2023/03/16 05:46:37;;;;;;;16.47;8.30;;;;;;;-1.33;100.00;100877.75;5024465;28;20197;-72
2023/03/16 05:49:03;;;;;;;16.53;8.80;;;;;;;-1.24;100.00;100887.84;5020659;28;20235;-72
2023/03/16 05:51:30;;;;;;;15.30;7.83;;;;;;;-1.19;100.00;100897.78;5021168;28;20236;-72
2023/03/16 05:53:57;;;;;;;16.10;8.27;;;;;;;-1.27;100.00;100880.75;5025971;28;20291;-72
2023/03/16 05:56:25;;;;;;;16.30;8.20;;;;;;;-1.17;100.00;100887.50;5024623;28;20693;-72
2023/03/16 05:58:52;;;;;;;13.93;8.63;;;;;;;-1.12;100.00;100878.31;5027752;28;20197;-72
2023/03/16 06:01:20;;;;;;;17.60;7.90;;;;;;;-1.04;100.00;100878.03;5027599;28;20357;-72
2023/03/16 06:03:48;;;;;;;15.17;8.27;;;;;;;-1.00;100.00;100882.63;5021759;28;20715;-72
2023/03/16 06:06:15;;;;;;;17.17;7.67;;;;;;;-0.80;100.00;100888.22;5026618;28;20647;-72
2023/03/16 06:08:42;;;;;;;15.57;8.40;;;;;;;-0.70;100.00;100885.47;5029028;28;20578;-72
2023/03/16 06:11:09;;;;;;;21.30;9.63;;;;;;;-0.57;100.00;100884.56;5026856;28;20223;-72
2023/03/16 06:13:36;;;;;;;15.80;8.97;;;;;;;-0.57;100.00;100882.84;5023455;28;20220;-72
2023/03/16 06:16:05;;;;;;;18.50;9.20;;;;;;;-0.58;100.00;100883.66;5023378;28;20283;-71
2023/03/16 06:18:32;;;;;;;16.93;8.77;;;;;;;-0.56;100.00;100888.97;5023081;28;20258;-72
2023/03/16 06:20:59;;;;;;;17.27;9.47;;;;;;;-0.55;100.00;100889.06;5016707;28;20225;-72
2023/03/16 06:23:25;;;;;;;18.07;9.33;;;;;;;-0.38;100.00;100885.88;5020376;28;20204;-72
2023/03/16 06:25:55;;;;;;;18.00;9.43;;;;;;;-0.25;100.00;100884.03;5023885;28;20205;-72
2023/03/16 06:28:22;;;;;;;16.73;9.80;;;;;;;-0.01;100.00;100896.91;5017899;28;20429;-72
2023/03/16 06:30:52;;;;;;;17.57;9.33;;;;;;;0.20;98.98;100884.34;5025136;28;20784;-72
2023/03/16 06:33:18;;;;;;;21.47;9.63;;;;;;;0.31;98.94;100896.31;5021929;28;20210;-73
2023/03/16 06:35:47;;;;;;;22.63;10.00;;;;;;;0.45;98.20;100898.91;5028374;28;20194;-72
2023/03/16 06:38:13;;;;;;;21.53;9.20;;;;;;;0.57;95.65;100890.13;5028810;28;20674;-73
2023/03/16 06:40:40;;;;;;;19.77;9.97;;;;;;;0.77;95.36;100890.41;5023233;28;20274;-72
2023/03/16 06:43:06;;;;;;;21.10;9.97;;;;;;;1.20;93.58;100880.81;5013633;28;20213;-72
2023/03/16 06:45:33;;;;;;;18.33;10.13;;;;;;;1.95;90.10;100885.09;5024347;28;20224;-72
2023/03/16 06:47:59;;;;;;;20.60;10.43;;;;;;;2.41;87.14;100889.44;5024358;28;20576;-72
2023/03/16 06:50:27;;;;;;;22.60;11.47;;;;;;;2.25;86.11;100888.50;5023155;28;20313;-72
2023/03/16 06:52:53;;;;;;;18.13;9.50;;;;;;;2.16;85.93;100883.69;5021524;28;20627;-72
2023/03/16 06:55:21;;;;;;;22.53;10.63;;;;;;;2.09;85.90;100892.91;5024933;28;20709;-73
2023/03/16 06:57:47;;;;;;;18.53;9.40;;;;;;;2.02;86.90;100887.25;5025587;28;20237;-72
2023/03/16 07:00:15;;;;;;;17.23;9.87;;;;;;;2.16;86.33;100892.41;5026187;28;20717;-72
2023/03/16 07:02:42;;;;;;;15.77;9.80;;;;;;;2.32;86.65;100888.91;5025831;28;20231;-72
2023/03/16 07:05:12;;;;;;;20.03;10.00;;;;;;;2.47;84.81;100886.25;5029956;28;20202;-73
2023/03/16 07:07:42;;;;;;;16.77;9.60;;;;;;;2.36;85.39;100888.25;5028964;28;20245;-72
2023/03/16 07:10:14;;;;;;;20.63;9.50;;;;;;;2.43;85.37;100887.81;5024878;28;20211;-75
2023/03/16 07:12:41;;;;;;;17.13;10.20;;;;;;;2.73;85.05;100885.88;5024830;28;20196;-74
2023/03/16 07:15:07;;;;;;;16.57;9.57;;;;;;;3.07;82.66;100875.47;5028494;28;20199;-73
2023/03/16 07:17:34;;;;;;;16.07;9.67;;;;;;;3.26;82.46;100879.03;5016646;28;20790;-73
2023/03/16 07:20:04;;;;;;;16.17;9.40;;;;;;;3.43;81.69;100880.75;5012882;28;20572;-73
2023/03/16 07:22:31;;;;;;;16.63;9.23;;;;;;;3.59;81.29;100888.53;5025413;28;20199;-74
2023/03/16 07:24:58;;;;;;;12.60;7.40;;;;;;;3.50;80.89;100884.56;5032477;28;20199;-72
2023/03/16 07:27:24;;;;;;;11.80;7.43;;;;;;;3.44;81.24;100890.41;5024763;28;20230;-72
2023/03/16 07:29:51;;;;;;;14.27;7.23;;;;;;;3.41;80.77;100888.53;5031201;28;20258;-72
2023/03/16 07:32:18;;;;;;;12.77;7.33;;;;;;;3.47;80.25;100885.31;5022865;28;20741;-74
2023/03/16 07:34:44;;;;;;;10.47;6.70;;;;;;;3.54;79.11;100879.53;5033312;28;20725;-74
2023/03/16 07:37:10;;;;;;;12.33;6.70;;;;;;;3.68;79.53;100889.00;5019746;28;20250;-73
2023/03/16 07:39:37;;;;;;;13.07;6.63;;;;;;;3.83;79.51;100880.97;5024709;28;20222;-75
2023/03/16 07:42:04;;;;;;;9.90;6.17;;;;;;;3.95;78.93;100878.03;5030959;28;20247;-74
2023/03/16 07:44:30;;;;;;;11.43;7.03;;;;;;;3.87;77.68;100880.28;5030427;28;20194;-73
2023/03/16 07:46:57;;;;;;;13.07;6.10;;;;;;;3.96;78.22;100885.97;5032334;28;20229;-74
2023/03/16 07:49:23;;;;;;;10.87;6.47;;;;;;;3.89;77.33;100888.22;5024103;28;20203;-73
2023/03/16 07:51:50;;;;;;;13.63;6.90;;;;;;;3.81;78.16;100879.09;5031249;28;20316;-74
2023/03/16 07:54:16;;;;;;;17.23;6.77;;;;;;;3.72;78.29;100882.19;5024214;28;20200;-77
2023/03/16 07:56:42;;;;;;;15.63;7.20;;;;;;;3.85;79.56;100887.19;5027363;28;20406;-74
2023/03/16 07:59:15;;;;;;;16.03;7.13;;;;;;;3.92;78.63;100883.13;5014531;28;21144;-73
2023/03/16 08:01:41;;;;;;;13.83;7.80;;;;;;;3.97;78.21;100884.25;5031250;28;20301;-72
2023/03/16 08:04:11;;;;;;;11.97;6.60;;;;;;;4.08;78.69;100885.66;5028480;28;20208;-72
2023/03/16 08:06:37;;;;;;;14.33;7.60;;;;;;;4.29;77.32;100888.38;5029200;28;20629;-74
2023/03/16 08:09:04;;;;;;;13.07;7.87;;;;;;;4.43;77.02;100886.41;5019851;28;20204;-74
2023/03/16 08:11:31;;;;;;;11.57;7.33;;;;;;;4.64;75.66;100888.28;5014908;28;20254;-73
2023/03/16 08:13:57;;;;;;;13.80;7.37;;;;;;;4.73;75.75;100879.91;5025100;28;20457;-75
2023/03/16 08:16:25;;;;;;;12.03;6.27;;;;;;;4.93;76.08;100883.44;5025993;28;20248;-74
2023/03/16 08:18:55;;;;;;;9.57;6.47;;;;;;;5.15;74.67;100874.72;5026320;28;20195;-73
2023/03/16 08:21:22;;;;;;;11.33;6.53;;;;;;;5.21;73.28;100869.78;5023238;28;20219;-74
2023/03/16 08:23:49;;;;;;;14.70;6.40;;;;;;;5.23;73.55;100876.88;5034921;28;20650;-74
2023/03/16 08:26:16;;;;;;;9.13;5.93;;;;;;;5.24;71.87;100876.06;5028226;28;20671;-74
2023/03/16 08:28:46;;;;;;;10.83;6.03;;;;;;;5.30;73.07;100872.78;5028767;28;20202;-74
2023/03/16 08:31:14;;;;;;;8.70;5.70;;;;;;;5.12;72.81;100870.25;5024857;28;20261;-71
2023/03/16 08:33:42;;;;;;;13.30;6.27;;;;;;;5.28;73.54;100864.84;5028609;28;20797;-72
2023/03/16 08:36:10;;;;;;;9.43;6.03;;;;;;;5.27;72.50;100860.41;5020996;28;20247;-72
2023/03/16 08:38:38;;;;;;;12.10;6.97;;;;;;;5.20;72.82;100854.81;5026841;28;20285;-72
2023/03/16 08:41:05;;;;;;;11.80;6.67;;;;;;;5.35;72.67;100852.84;5025097;28;20238;-72
2023/03/16 08:43:33;;;;;;;11.30;6.80;;;;;;;5.51;72.36;100859.63;5025472;28;20202;-72
2023/03/16 08:46:00;;;;;;;9.70;6.03;;;;;;;5.80;71.28;100868.69;5026755;28;20609;-72
2023/03/16 08:48:28;;;;;;;12.07;6.33;;;;;;;6.03;70.76;100865.31;5026911;28;20198;-72
2023/03/16 08:50:55;;;;;;;11.27;6.17;;;;;;;6.50;70.09;100856.59;5022877;28;20223;-72
2023/03/16 08:53:21;;;;;;;11.27;6.30;;;;;;;6.90;68.06;100855.41;5025783;28;20270;-72
2023/03/16 08:55:47;;;;;;;9.07;5.77;;;;;;;7.26;66.54;100862.78;5024915;28;20193;-72
2023/03/16 08:58:14;;;;;;;11.93;6.23;;;;;;;7.25;65.53;100861.00;5028638;28;20224;-73
2023/03/16 09:00:41;;;;;;;10.73;6.10;;;;;;;7.32;64.32;100852.47;5020437;28;20228;-71
2023/03/16 09:03:10;;;;;;;10.23;6.27;;;;;;;7.58;64.61;100845.41;5018761;28;20198;-71
2023/03/16 09:05:37;;;;;;;10.30;6.13;;;;;;;8.01;63.95;100859.13;5016668;28;20253;-71
2023/03/16 09:08:05;;;;;;;11.63;6.27;;;;;;;8.20;62.28;100838.56;5015694;28;20206;-72
2023/03/16 09:10:32;;;;;;;9.93;6.03;;;;;;;7.98;62.08;100842.28;5012394;28;20797;-72
2023/03/16 09:12:58;;;;;;;10.03;6.00;;;;;;;8.05;61.87;100842.56;5013483;28;20204;-71
2023/03/16 09:15:25;;;;;;;10.87;6.00;;;;;;;8.16;62.30;100837.59;5011993;28;20208;-71
2023/03/16 09:17:53;;;;;;;8.57;5.70;;;;;;;8.44;61.21;100828.78;5010141;28;20227;-71
2023/03/16 09:20:19;;;;;;;10.13;5.80;;;;;;;8.62;60.51;100831.06;5012530;28;20275;-72
2023/03/16 09:22:54;;;;;;;10.87;6.17;;;;;;;8.79;59.41;100829.75;5020714;28;20195;-73
2023/03/16 09:25:20;;;;;;;11.37;6.37;;;;;;;8.92;59.34;100825.72;5026191;28;20199;-72
2023/03/16 09:27:47;;;;;;;15.07;7.47;;;;;;;8.93;59.62;100832.78;5025943;28;20203;-73
2023/03/16 09:30:15;;;;;;;10.93;7.13;;;;;;;9.06;59.20;100819.06;5025926;28;20228;-72
2023/03/16 09:32:42;;;;;;;10.07;6.70;;;;;;;9.27;58.89;100824.91;5021493;28;20201;-72
2023/03/16 09:35:08;;;;;;;10.40;6.57;;;;;;;9.23;57.71;100824.78;5026280;28;20315;-72
2023/03/16 09:37:35;;;;;;;10.23;6.87;;;;;;;9.39;58.92;100829.59;5028620;28;20206;-72
2023/03/16 09:40:32;;;;;;;10.73;6.17;;;;;;;9.43;58.08;100828.81;5027580;28;20230;-72
2023/03/16 09:43:16;;;;;;;10.73;6.27;;;;;;;9.15;57.08;100819.28;5027603;28;20236;-72
2023/03/16 09:46:15;;;;;;;16.43;6.97;;;;;;;8.96;58.96;100830.22;5024910;28;20285;-72
2023/03/16 09:48:41;;;;;;;13.00;7.13;;;;;;;8.91;59.97;100830.13;5022148;28;20224;-72
2023/03/16 09:51:19;;;;;;;12.87;6.53;;;;;;;9.00;59.13;100837.38;5023708;28;20831;-73
2023/03/16 09:53:51;;;;;;;13.47;7.97;;;;;;;9.12;59.19;100832.41;5020289;28;20201;-73
2023/03/16 09:56:26;;;;;;;11.87;6.93;;;;;;;9.23;59.40;100830.97;5015881;28;20197;-73
2023/03/16 09:58:54;;;;;;;14.90;7.23;;;;;;;9.30;58.54;100826.72;5023442;28;20197;-73
2023/03/16 10:01:51;;;;;;;10.30;6.43;;;;;;;9.42;57.96;100825.28;5018048;28;20610;-73
2023/03/16 10:04:28;;;;;;;9.83;6.57;;;;;;;9.37;57.46;100823.38;5017473;28;20203;-73
2023/03/16 10:07:15;;;;;;;9.67;6.17;;;;;;;9.43;57.60;100819.13;5019737;28;20281;-72
2023/03/16 10:09:48;;;;;;;9.63;6.63;;;;;;;9.71;57.16;100814.53;5016648;28;20673;-72
2023/03/16 10:12:15;;;;;;;12.23;6.77;;;;;;;9.73;56.91;100818.09;5020320;28;20231;-73
2023/03/16 10:14:57;;;;;;;12.50;6.90;;;;;;;9.70;56.00;100824.22;5019504;28;20201;-75
2023/03/16 10:17:37;;;;;;;10.70;6.27;;;;;;;9.54;56.74;100815.84;5023326;28;20622;-73
2023/03/16 10:20:07;;;;;;;12.00;6.80;;;;;;;9.76;56.72;100818.16;5021071;28;20282;-73
2023/03/16 10:22:41;;;;;;;11.20;5.90;;;;;;;9.87;55.73;100811.38;5018062;28;20286;-72
2023/03/16 10:25:25;;;;;;;9.90;6.27;;;;;;;10.04;55.87;100814.41;5015212;28;20193;-71
2023/03/16 10:27:53;;;;;;;10.27;6.50;;;;;;;10.01;55.72;100815.25;5017849;28;20593;-71
2023/03/16 10:30:29;;;;;;;8.50;6.10;;;;;;;9.98;56.18;100808.97;5017321;28;20210;-72
2023/03/16 10:33:02;;;;;;;9.13;5.90;;;;;;;10.19;55.09;100808.56;5021118;28;20403;-71
2023/03/16 10:35:52;;;;;;;8.40;5.47;;;;;;;10.34;54.87;100798.31;5021521;28;20208;-72
2023/03/16 10:38:45;;;;;;;7.63;4.80;;;;;;;10.46;53.97;100801.22;5021454;28;20229;-72
2023/03/16 10:41:19;;;;;;;9.10;4.90;;;;;;;10.46;53.54;100797.69;5020505;28;20223;-72
2023/03/16 10:43:54;;;;;;;6.17;4.63;;;;;;;10.47;54.24;100795.06;5020062;28;20252;-72
2023/03/16 10:46:21;;;;;;;8.57;5.67;;;;;;;10.50;54.52;100802.19;5014826;28;20200;-72
2023/03/16 10:48:59;;;;;;;7.77;5.03;;;;;;;10.47;53.41;100800.38;5020795;28;20234;-71
2023/03/16 10:51:32;;;;;;;7.83;5.03;;;;;;;10.47;53.74;100802.13;5025850;28;20754;-72
2023/03/16 10:54:15;;;;;;;9.63;5.10;;;;;;;10.35;53.92;100793.03;5029698;28;20200;-73
2023/03/16 10:56:41;;;;;;;8.20;5.10;;;;;;;10.20;53.93;100797.09;5028938;28;20679;-74
2023/03/16 10:59:26;;;;;;;7.43;5.13;;;;;;;10.21;54.36;100796.28;5026338;28;20200;-73
2023/03/16 11:01:53;;;;;;;9.67;5.17;;;;;;;10.22;55.29;100785.72;5028614;28;20318;-73
2023/03/16 11:04:19;;;;;;;8.33;5.10;;;;;;;10.27;54.28;100772.56;5027086;28;20215;-73
2023/03/16 11:06:54;;;;;;;8.93;5.10;;;;;;;10.38;53.71;100783.38;5032945;28;20199;-74
2023/03/16 11:09:31;;;;;;;7.13;5.07;;;;;;;10.50;54.07;100779.25;5027349;28;20248;-72
2023/03/16 11:11:59;;;;;;;8.13;5.03;;;;;;;10.66;53.56;100773.38;5025946;28;20306;-74
2023/03/16 11:14:27;;;;;;;7.07;5.00;;;;;;;10.87;53.41;100782.59;5018542;28;20279;-72
2023/03/16 11:17:16;;;;;;;8.93;5.70;;;;;;;11.03;53.34;100779.34;5038660;28;20204;-74
2023/03/16 11:19:46;;;;;;;7.97;5.07;;;;;;;11.36;52.17;100778.16;5029532;28;20194;-74
2023/03/16 11:22:13;;;;;;;5.67;4.43;;;;;;;11.53;49.78;100781.94;5030116;28;20221;-74
2023/03/16 11:25:01;;;;;;;5.77;4.60;;;;;;;11.92;49.41;100766.66;5022728;28;20251;-74
2023/03/16 11:27:47;;;;;;;6.27;4.50;;;;;;;12.22;49.04;100765.28;5028385;28;20188;-73
2023/03/16 11:30:18;;;;;;;11.23;4.67;;;;;;;12.31;47.31;100760.09;5030573;28;20698;-75